Green Fast — ZDHA9 — position and weather

sailwx.info

Track history (hours):
 
Tides and Currents Weather Stations Pressure Air Temp Water Temp Dewpoint Dewpoint Depression Visibility Wind Speed Wind Dir Waves Ship Positions

Green Fast

Last reported at 2015-Feb-17 22:14 UTC. Time now 2015-Mar-04 08:33 UTC.
Position N 40°38' E 003°35'.
Warning: this ship's position is 14 days out of date.

Length 118 m; draft 6.8 m.

Type: Ship (hazmat cat A). MMSI: 236294000.

Date/timePositionNaut miles runAvg speedWind from/ knotsBaromVisibWave heightAir tempDewpointWater temp
2015-Feb-17 22:14N 40°38' E 003°35'811.9
2015-Feb-17 21:33N 40°42' E 003°26'1211.7
2015-Feb-17 20:33N 40°48' E 003°13'1111.4
2015-Feb-17 19:33N 40°54' E 002°60'2211.0
2015-Feb-17 17:33N 41°05' E 002°35'1110.8
2015-Feb-17 16:34N 41°11' E 002°23'1110.9
2015-Feb-17 15:32N 41°17' E 002°11'3 3.2
2015-Feb-17 14:30N 41°21' E 002°10'0 0.0
2015-Feb-17 12:21N 41°21' E 002°10'0 0.0
2015-Feb-17 11:26N 41°21' E 002°10'11 1.6
2015-Feb-17 04:33N 41°10' E 002°04'1212.0
2015-Feb-17 03:33N 41°01' E 001°54'1212.2
2015-Feb-17 02:33N 40°52' E 001°44'1212.4
2015-Feb-17 01:33N 40°43' E 001°33'1312.7
2015-Feb-17 00:33N 40°35' E 001°20'1312.6
2015-Feb-16 23:33N 40°28' E 001°06'1312.7
2015-Feb-16 22:33N 40°20' E 000°52'1313.1
2015-Feb-16 21:33N 40°13' E 000°38'139 6.3
2015-Feb-15 23:29N 37°59' W 000°09'1512.5
2015-Feb-15 22:17N 37°46' W 000°19'912.6
2015-Feb-15 21:33N 37°39' W 000°26'3812.6
2015-Feb-15 18:33N 37°12' W 001°00'21612.7
2015-Feb-15 01:33N 35°59' W 005°13'18 0.4
2015-Feb-13 06:06N 35°58' W 005°35'712.2
2015-Feb-13 05:33N 35°60' W 005°27'1211.8
2015-Feb-13 04:33N 36°02' W 005°12'38012.3
2015-Feb-11 21:33N 36°55' E 002°35'  
Track history (hours):
 
Tides and Currents Weather Stations Pressure Air Temp Water Temp Dewpoint Dewpoint Depression Visibility Wind Speed Wind Dir Waves Ship Positions

Green Fast

Last reported at 2015-Feb-17 22:14 UTC. Time now 2015-Mar-04 08:33 UTC.
Position N 40°38' E 003°35'.
Warning: this ship's position is 14 days out of date.

Length 118 m; draft 6.8 m.

Type: Ship (hazmat cat A). MMSI: 236294000.

Date/timePositionNaut miles runAvg speedWind from/ knotsBaromVisibWave heightAir tempDewpointWater temp
2015-Feb-17 22:14N 40°38' E 003°35'811.9
2015-Feb-17 21:33N 40°42' E 003°26'1211.7
2015-Feb-17 20:33N 40°48' E 003°13'1111.4
2015-Feb-17 19:33N 40°54' E 002°60'2211.0
2015-Feb-17 17:33N 41°05' E 002°35'1110.8
2015-Feb-17 16:34N 41°11' E 002°23'1110.9
2015-Feb-17 15:32N 41°17' E 002°11'3 3.2
2015-Feb-17 14:30N 41°21' E 002°10'0 0.0
2015-Feb-17 12:21N 41°21' E 002°10'0 0.0
2015-Feb-17 11:26N 41°21' E 002°10'11 1.6
2015-Feb-17 04:33N 41°10' E 002°04'1212.0
2015-Feb-17 03:33N 41°01' E 001°54'1212.2
2015-Feb-17 02:33N 40°52' E 001°44'1212.4
2015-Feb-17 01:33N 40°43' E 001°33'1312.7
2015-Feb-17 00:33N 40°35' E 001°20'1312.6
2015-Feb-16 23:33N 40°28' E 001°06'1312.7
2015-Feb-16 22:33N 40°20' E 000°52'1313.1
2015-Feb-16 21:33N 40°13' E 000°38'139 6.3
2015-Feb-15 23:29N 37°59' W 000°09'1512.5
2015-Feb-15 22:17N 37°46' W 000°19'912.6
2015-Feb-15 21:33N 37°39' W 000°26'3812.6
2015-Feb-15 18:33N 37°12' W 001°00'21612.7
2015-Feb-15 01:33N 35°59' W 005°13'18 0.4
2015-Feb-13 06:06N 35°58' W 005°35'712.2
2015-Feb-13 05:33N 35°60' W 005°27'1211.8
2015-Feb-13 04:33N 36°02' W 005°12'38012.3
2015-Feb-11 21:33N 36°55' E 002°35'  

Dump ship's entire track history